createdAt,value
2018-11-04T00:00:57.920Z,92.98
2018-11-04T00:03:27.221Z,93.43
2018-11-04T00:05:56.350Z,94.06
2018-11-04T00:08:25.451Z,94.27
2018-11-04T00:10:54.484Z,94.66
2018-11-04T00:13:23.655Z,94.19
2018-11-04T00:15:52.784Z,94.86
2018-11-04T00:18:21.870Z,95.50
2018-11-04T00:20:51.158Z,95.39
2018-11-04T00:23:20.504Z,95.50
2018-11-04T00:25:50.147Z,95.44
2018-11-04T00:28:19.355Z,94.36
2018-11-04T00:30:48.558Z,93.65
2018-11-04T00:33:17.750Z,93.91
2018-11-04T00:35:47.370Z,93.48
2018-11-04T00:38:17.375Z,93.74
2018-11-04T00:40:46.588Z,93.31
2018-11-04T00:43:15.895Z,93.25
2018-11-04T00:45:45.242Z,93.81
2018-11-04T00:48:14.711Z,93.13
2018-11-04T00:50:44.008Z,93.36
2018-11-04T00:53:13.346Z,93.90
2018-11-04T00:55:49.042Z,94.09
2018-11-04T00:58:18.309Z,93.99
2018-11-04T01:00:47.145Z,93.63
2018-11-04T01:03:16.271Z,93.36
2018-11-04T01:05:45.621Z,92.53
2018-11-04T01:08:14.688Z,92.86
2018-11-04T01:10:43.743Z,93.15
2018-11-04T01:13:13.760Z,92.99
2018-11-04T01:15:42.950Z,93.53
2018-11-04T01:18:12.163Z,92.72
2018-11-04T01:20:41.511Z,91.94
2018-11-04T01:23:10.653Z,91.98
2018-11-04T01:25:39.782Z,91.92
2018-11-04T01:28:09.126Z,91.49
2018-11-04T01:30:38.237Z,91.37
2018-11-04T01:33:07.297Z,91.20
2018-11-04T01:35:36.581Z,91.73
2018-11-04T01:38:05.792Z,92.07
2018-11-04T01:40:35.084Z,91.79
2018-11-04T01:43:04.427Z,91.93
2018-11-04T01:45:33.571Z,91.65
2018-11-04T01:48:02.670Z,92.04
2018-11-04T01:50:31.982Z,91.76
2018-11-04T01:53:01.239Z,91.39
2018-11-04T01:55:30.258Z,91.64
2018-11-04T01:57:59.534Z,90.17
2018-11-04T02:00:28.730Z,90.07
2018-11-04T02:02:57.962Z,89.49
2018-11-04T02:05:27.317Z,88.51
2018-11-04T02:07:56.370Z,88.47
2018-11-04T02:10:25.522Z,88.03
2018-11-04T02:12:54.762Z,88.43
2018-11-04T02:15:23.902Z,87.64
2018-11-04T02:17:53.147Z,87.71
2018-11-04T02:20:22.522Z,87.10
2018-11-04T02:22:51.562Z,86.49
2018-11-04T02:25:20.826Z,86.37
2018-11-04T02:27:49.887Z,85.69
2018-11-04T02:30:18.947Z,85.53
2018-11-04T02:32:48.042Z,85.99
2018-11-04T02:35:17.411Z,85.85
2018-11-04T02:37:46.526Z,85.28
2018-11-04T02:40:15.827Z,86.04
2018-11-04T02:42:45.183Z,87.59
2018-11-04T02:45:14.114Z,89.27
2018-11-04T02:47:43.211Z,90.78
2018-11-04T02:50:12.365Z,91.25
2018-11-04T02:52:41.722Z,90.65
2018-11-04T02:55:10.866Z,89.16
2018-11-04T02:57:40.254Z,89.10
2018-11-04T03:00:12.663Z,90.32
2018-11-04T03:02:42.614Z,91.12
2018-11-04T03:05:12.438Z,92.07
2018-11-04T03:07:42.296Z,92.02
2018-11-04T03:10:13.002Z,91.99
2018-11-04T03:12:42.294Z,91.72
2018-11-04T03:15:11.434Z,91.56
2018-11-04T03:17:40.810Z,91.80
2018-11-04T03:20:09.841Z,95.30
2018-11-04T03:22:39.717Z,94.54
2018-11-04T03:25:09.120Z,93.99
2018-11-04T03:27:38.375Z,94.25
2018-11-04T03:30:08.424Z,94.31
2018-11-04T03:32:37.973Z,93.40
2018-11-04T03:35:07.013Z,92.58
2018-11-04T03:37:36.185Z,92.48
2018-11-04T03:40:06.248Z,94.01
2018-11-04T03:42:35.447Z,94.65
2018-11-04T03:45:04.628Z,94.00
2018-11-04T03:47:34.087Z,94.75
2018-11-04T03:50:03.298Z,94.63
2018-11-04T03:52:32.528Z,94.51
2018-11-04T03:55:01.975Z,94.45
2018-11-04T03:57:31.058Z,96.45
2018-11-04T04:00:00.222Z,96.29
2018-11-04T04:02:29.666Z,96.39
2018-11-04T04:04:59.052Z,96.73
2018-11-04T04:07:28.158Z,97.08
2018-11-04T04:09:57.674Z,97.30
2018-11-04T04:12:26.763Z,98.02
2018-11-04T04:14:55.834Z,97.60
2018-11-04T04:17:24.894Z,96.93
2018-11-04T04:19:54.132Z,96.33
2018-11-04T04:22:23.329Z,96.66
2018-11-04T04:24:52.687Z,96.68
2018-11-04T04:27:21.923Z,96.71
2018-11-04T04:29:51.171Z,96.79
2018-11-04T04:32:20.135Z,97.58
2018-11-04T04:34:49.959Z,97.18
2018-11-04T04:37:19.270Z,97.73
2018-11-04T04:39:48.574Z,96.69
2018-11-04T04:42:17.816Z,97.10
2018-11-04T04:44:47.146Z,96.76
2018-11-04T04:47:16.672Z,96.82
2018-11-04T04:49:45.884Z,97.45
2018-11-04T04:52:15.178Z,97.63
2018-11-04T04:54:44.593Z,97.89
2018-11-04T04:57:13.878Z,97.55
2018-11-04T04:59:42.865Z,97.25
2018-11-04T05:02:12.595Z,97.25
2018-11-04T05:04:41.894Z,97.06
2018-11-04T05:07:11.085Z,97.10
2018-11-04T05:09:40.602Z,97.02
2018-11-04T05:12:09.861Z,97.03
2018-11-04T05:14:38.970Z,95.83
2018-11-04T05:17:07.988Z,95.89
2018-11-04T05:19:37.173Z,95.69
2018-11-04T05:22:06.826Z,95.07
2018-11-04T05:24:36.185Z,93.65
2018-11-04T05:27:05.218Z,92.62
2018-11-04T05:29:34.302Z,92.45
2018-11-04T05:32:03.831Z,91.17
2018-11-04T05:34:33.099Z,87.60
2018-11-04T05:37:02.411Z,84.07
2018-11-04T05:39:31.811Z,79.43
2018-11-04T05:42:00.853Z,73.95
2018-11-04T05:44:29.998Z,73.60
2018-11-04T05:46:59.588Z,72.52
2018-11-04T05:49:28.603Z,71.31
2018-11-04T05:51:57.918Z,70.17
2018-11-04T05:54:27.092Z,67.61
2018-11-04T05:56:56.198Z,65.54
2018-11-04T05:59:25.311Z,62.01
2018-11-04T06:01:54.831Z,58.65
2018-11-04T06:04:24.001Z,57.13
2018-11-04T06:06:53.379Z,57.33
2018-11-04T06:09:22.648Z,56.44
2018-11-04T06:11:51.738Z,55.61
2018-11-04T06:14:20.845Z,55.13
2018-11-04T06:16:50.158Z,54.80
2018-11-04T06:19:19.418Z,54.94
2018-11-04T06:21:48.556Z,52.76
2018-11-04T06:24:17.654Z,51.85
2018-11-04T06:26:46.778Z,51.75
2018-11-04T06:29:15.871Z,50.82
2018-11-04T06:31:45.338Z,50.54
2018-11-04T06:34:14.395Z,50.90
2018-11-04T06:36:43.591Z,49.83
2018-11-04T06:39:13.198Z,49.55
2018-11-04T06:41:42.332Z,49.53
2018-11-04T06:44:11.518Z,49.46
2018-11-04T06:46:40.798Z,49.29
2018-11-04T06:49:09.904Z,48.70
2018-11-04T06:51:38.934Z,48.17
2018-11-04T06:54:08.375Z,47.10
2018-11-04T06:56:37.479Z,47.35
2018-11-04T06:59:07.616Z,47.69
2018-11-04T07:01:37.245Z,49.01
2018-11-04T07:04:28.346Z,48.62
2018-11-04T07:06:58.241Z,47.97
2018-11-04T07:09:27.411Z,47.15
2018-11-04T07:11:56.538Z,47.04
2018-11-04T07:14:25.964Z,52.53
2018-11-04T07:16:55.215Z,54.17
2018-11-04T07:19:24.556Z,54.39
2018-11-04T07:21:53.921Z,55.59
2018-11-04T07:24:23.229Z,55.89
2018-11-04T07:26:52.538Z,55.32
2018-11-04T07:29:21.679Z,54.84
2018-11-04T07:31:50.839Z,54.95
2018-11-04T07:34:19.854Z,55.95
2018-11-04T07:36:49.400Z,57.36
2018-11-04T07:39:18.602Z,58.71
2018-11-04T07:41:47.835Z,59.29
2018-11-04T07:44:16.934Z,58.00
2018-11-04T07:46:46.159Z,57.68
2018-11-04T07:49:15.435Z,58.69
2018-11-04T07:51:44.516Z,61.07
2018-11-04T07:54:13.865Z,61.70
2018-11-04T07:56:43.192Z,61.74
2018-11-04T07:59:11.973Z,60.88
2018-11-04T08:01:41.322Z,62.02
2018-11-04T08:04:10.470Z,61.76
2018-11-04T08:06:39.925Z,62.70
2018-11-04T08:09:10.109Z,62.04
2018-11-04T08:11:39.569Z,63.39
2018-11-04T08:14:08.823Z,63.28
2018-11-04T08:16:38.062Z,62.97
2018-11-04T08:19:07.150Z,62.48
2018-11-04T08:21:36.378Z,63.47
2018-11-04T08:24:05.758Z,62.86
2018-11-04T08:26:34.955Z,62.19
2018-11-04T08:29:04.543Z,60.93
2018-11-04T08:31:33.789Z,62.52
2018-11-04T08:34:03.086Z,62.44
2018-11-04T08:36:32.737Z,61.73
2018-11-04T08:39:01.808Z,62.60
2018-11-04T08:41:31.015Z,63.16
2018-11-04T08:44:00.030Z,63.08
2018-11-04T08:46:29.134Z,62.83
2018-11-04T08:48:58.218Z,61.84
2018-11-04T08:51:27.807Z,61.84
2018-11-04T08:53:57.498Z,60.95
2018-11-04T08:56:26.788Z,60.12
2018-11-04T08:58:55.846Z,60.20
2018-11-04T09:01:24.930Z,59.85
2018-11-04T09:03:54.002Z,59.80
2018-11-04T09:06:23.184Z,58.81
2018-11-04T09:08:52.666Z,58.26
2018-11-04T09:11:21.858Z,57.09
2018-11-04T09:13:51.323Z,55.95
2018-11-04T09:16:20.410Z,55.23
2018-11-04T09:18:49.566Z,52.79
2018-11-04T09:21:18.971Z,52.56
2018-11-04T09:23:48.202Z,53.16
2018-11-04T09:26:17.194Z,53.79
2018-11-04T09:28:46.726Z,52.74
2018-11-04T09:31:15.815Z,51.69
2018-11-04T09:33:45.094Z,49.49
2018-11-04T09:36:14.600Z,49.94
2018-11-04T09:38:43.698Z,47.81
2018-11-04T09:41:13.409Z,47.22
2018-11-04T09:43:43.028Z,47.83
2018-11-04T09:46:12.146Z,47.71
2018-11-04T09:48:41.214Z,47.39
2018-11-04T09:51:10.354Z,48.28
2018-11-04T09:53:39.412Z,48.62
2018-11-04T09:56:08.582Z,47.87
2018-11-04T09:58:37.666Z,48.14
2018-11-04T10:01:07.009Z,47.83
2018-11-04T10:03:36.080Z,47.42
2018-11-04T10:06:05.466Z,47.84
2018-11-04T10:08:34.809Z,48.01
2018-11-04T10:11:04.103Z,49.20
2018-11-04T10:13:33.494Z,48.76
2018-11-04T10:16:02.434Z,48.11
2018-11-04T10:18:31.507Z,47.46
2018-11-04T10:21:01.416Z,47.38
2018-11-04T10:23:30.251Z,46.93
2018-11-04T10:25:59.487Z,46.46
2018-11-04T10:28:28.657Z,46.93
2018-11-04T10:30:57.807Z,47.25
2018-11-04T10:33:26.798Z,46.97
2018-11-04T10:35:56.104Z,46.94
2018-11-04T10:38:25.208Z,46.78
2018-11-04T10:40:54.403Z,45.95
2018-11-04T10:43:23.755Z,46.44
2018-11-04T10:45:53.008Z,46.47
2018-11-04T10:48:22.240Z,46.15
2018-11-04T10:50:51.462Z,45.01
2018-11-04T10:53:20.575Z,45.79
2018-11-04T10:55:49.728Z,45.66
2018-11-04T10:58:19.144Z,44.82
2018-11-04T11:00:53.425Z,44.54
2018-11-04T11:03:22.939Z,43.12
2018-11-04T11:05:52.201Z,43.14
2018-11-04T11:08:21.390Z,42.66
2018-11-04T11:10:50.833Z,41.32
2018-11-04T11:13:19.921Z,39.59
2018-11-04T11:15:49.041Z,39.65
2018-11-04T11:18:18.500Z,38.55
2018-11-04T11:20:47.754Z,38.02
2018-11-04T11:23:16.901Z,37.23
2018-11-04T11:25:46.175Z,37.26
2018-11-04T11:28:15.295Z,36.08
2018-11-04T11:30:44.399Z,35.34
2018-11-04T11:33:13.659Z,34.77
2018-11-04T11:35:42.842Z,34.14
2018-11-04T11:38:12.005Z,34.96
2018-11-04T11:40:41.430Z,34.79
2018-11-04T11:43:10.521Z,34.01
2018-11-04T11:45:39.485Z,33.32
2018-11-04T11:48:09.186Z,33.56
2018-11-04T11:50:38.512Z,33.24
2018-11-04T11:53:07.875Z,31.57
2018-11-04T11:55:37.116Z,31.43
2018-11-04T11:58:06.444Z,33.25
2018-11-04T12:00:35.734Z,34.11
2018-11-04T12:03:05.253Z,33.22
2018-11-04T12:05:34.348Z,33.17
2018-11-04T12:08:03.610Z,33.14
2018-11-04T12:10:33.422Z,30.15
2018-11-04T12:13:02.615Z,30.02
2018-11-04T12:15:31.651Z,31.10
2018-11-04T12:18:00.861Z,31.63
2018-11-04T12:20:30.048Z,32.17
2018-11-04T12:22:59.183Z,32.43
2018-11-04T12:25:28.707Z,33.05
2018-11-04T12:27:57.843Z,32.95
2018-11-04T12:30:26.675Z,32.88
2018-11-04T12:32:56.165Z,33.18
2018-11-04T12:35:25.384Z,32.82
2018-11-04T12:37:54.619Z,32.54
2018-11-04T12:40:24.038Z,32.33
2018-11-04T12:42:53.082Z,32.15
2018-11-04T12:45:22.243Z,32.18
2018-11-04T12:47:51.872Z,31.99
2018-11-04T12:50:20.966Z,32.63
2018-11-04T12:52:49.932Z,32.96
2018-11-04T12:55:19.380Z,32.50
2018-11-04T12:57:48.487Z,32.54
2018-11-04T13:00:17.674Z,32.47
2018-11-04T13:02:46.928Z,32.23
2018-11-04T13:05:16.063Z,32.26
2018-11-04T13:07:45.327Z,32.16
2018-11-04T13:10:15.371Z,31.82
2018-11-04T13:12:44.431Z,31.83
2018-11-04T13:15:14.530Z,31.62
2018-11-04T13:17:44.206Z,30.84
2018-11-04T13:20:13.484Z,31.38
2018-11-04T13:22:42.685Z,31.06
2018-11-04T13:25:12.162Z,30.67
2018-11-04T13:27:41.203Z,30.83
2018-11-04T13:30:12.159Z,29.93
2018-11-04T13:32:41.746Z,30.54
2018-11-04T13:35:10.825Z,30.75
2018-11-04T13:37:39.719Z,30.89
2018-11-04T13:40:10.753Z,31.22
2018-11-04T13:42:39.963Z,30.33
2018-11-04T13:45:09.441Z,30.00
2018-11-04T13:47:38.994Z,30.33
2018-11-04T13:50:11.250Z,29.76
2018-11-04T13:52:41.076Z,30.05
2018-11-04T13:55:10.113Z,30.16
2018-11-04T13:57:39.663Z,30.38
2018-11-04T14:00:11.115Z,30.45
2018-11-04T14:02:40.230Z,30.36
2018-11-04T14:05:10.456Z,30.37
2018-11-04T14:07:40.277Z,30.80
2018-11-04T14:10:10.827Z,31.31
2018-11-04T14:12:40.167Z,31.62
2018-11-04T14:15:09.294Z,31.30
2018-11-04T14:17:38.273Z,31.75
2018-11-04T14:20:08.811Z,32.45
2018-11-04T14:22:38.299Z,32.06
2018-11-04T14:25:08.166Z,32.18
2018-11-04T14:27:37.435Z,32.38
2018-11-04T14:30:08.990Z,32.85
2018-11-04T14:32:38.195Z,33.06
2018-11-04T14:35:08.638Z,33.38
2018-11-04T14:37:38.462Z,33.13
2018-11-04T14:40:08.804Z,33.53
2018-11-04T14:42:38.052Z,34.17
2018-11-04T14:45:07.927Z,34.50
2018-11-04T14:47:37.369Z,34.82
2018-11-04T14:50:08.573Z,35.17
2018-11-04T14:52:37.589Z,35.23
2018-11-04T14:55:06.915Z,35.36
2018-11-04T14:57:36.907Z,35.19
2018-11-04T15:00:09.910Z,36.07
2018-11-04T15:02:39.376Z,35.90
2018-11-04T15:05:09.043Z,36.54
2018-11-04T15:07:38.462Z,36.59
2018-11-04T15:10:09.749Z,36.88
2018-11-04T15:12:38.770Z,37.46
2018-11-04T15:15:09.712Z,37.83
2018-11-04T15:17:39.039Z,38.30
2018-11-04T15:20:08.585Z,38.23
2018-11-04T15:22:50.568Z,38.59
2018-11-04T15:25:20.754Z,38.39
2018-11-04T15:27:49.903Z,38.86
2018-11-04T15:30:19.247Z,39.02
2018-11-04T15:32:48.201Z,38.96
2018-11-04T15:35:17.786Z,39.37
2018-11-04T15:37:47.070Z,39.21
2018-11-04T15:40:17.041Z,39.58
2018-11-04T15:42:46.083Z,39.32
2018-11-04T15:45:16.272Z,39.62
2018-11-04T15:47:45.291Z,38.99
2018-11-04T15:50:16.755Z,39.70
2018-11-04T15:52:46.149Z,39.46
2018-11-04T15:55:15.414Z,39.51
2018-11-04T15:57:44.617Z,39.50
2018-11-04T16:00:14.860Z,39.80
2018-11-04T16:02:44.066Z,39.43
2018-11-04T16:05:13.302Z,39.87
2018-11-04T16:07:42.567Z,39.49
2018-11-04T16:10:12.261Z,39.55
2018-11-04T16:12:41.439Z,39.46
2018-11-04T16:15:12.393Z,39.09
2018-11-04T16:17:41.600Z,39.35
2018-11-04T16:20:12.392Z,39.30
2018-11-04T16:22:42.071Z,39.56
2018-11-04T16:25:12.009Z,39.36
2018-11-04T16:27:41.516Z,38.99
2018-11-04T16:30:12.156Z,39.20
2018-11-04T16:32:41.283Z,39.39
2018-11-04T16:35:11.883Z,39.40
2018-11-04T16:37:41.655Z,39.35
2018-11-04T16:40:11.162Z,39.27
2018-11-04T16:42:40.807Z,39.76
2018-11-04T16:45:12.160Z,40.18
2018-11-04T16:47:41.108Z,40.80
2018-11-04T16:50:12.084Z,41.11
2018-11-04T16:52:41.571Z,41.51
2018-11-04T16:55:11.718Z,42.70
2018-11-04T16:57:41.090Z,42.83
2018-11-04T17:00:10.918Z,42.91
2018-11-04T17:02:40.188Z,43.87
2018-11-04T17:05:10.400Z,44.92
2018-11-04T17:07:39.257Z,45.17
2018-11-04T17:10:08.724Z,45.75
2018-11-04T17:12:38.260Z,46.13
2018-11-04T17:15:09.093Z,46.74
2018-11-04T17:17:38.897Z,46.62
2018-11-04T17:20:12.847Z,46.91
2018-11-04T17:22:42.640Z,48.09
2018-11-04T17:25:12.051Z,48.24
2018-11-04T17:27:41.173Z,48.80
2018-11-04T17:30:14.503Z,48.83
2018-11-04T17:32:43.845Z,49.59
2018-11-04T17:35:14.107Z,49.97
2018-11-04T17:37:43.794Z,50.13
2018-11-04T17:40:13.746Z,50.93
2018-11-04T17:42:42.658Z,50.70
2018-11-04T17:45:13.537Z,51.33
2018-11-04T17:47:42.659Z,51.84
2018-11-04T17:50:14.186Z,52.40
2018-11-04T17:52:45.183Z,52.53
2018-11-04T17:55:14.210Z,53.14
2018-11-04T17:57:43.270Z,53.56
2018-11-04T18:00:13.826Z,53.60
2018-11-04T18:02:43.226Z,54.30
2018-11-04T18:05:12.768Z,54.27
2018-11-04T18:07:42.443Z,53.92
2018-11-04T18:10:12.471Z,53.56
2018-11-04T18:14:10.691Z,53.36
2018-11-04T18:16:39.726Z,54.11
2018-11-04T18:19:08.212Z,53.85
2018-11-04T18:21:38.111Z,53.32
2018-11-04T18:24:07.116Z,53.75
2018-11-04T18:26:36.511Z,54.26
2018-11-04T18:29:06.131Z,54.46
2018-11-04T18:31:35.117Z,54.79
2018-11-04T18:34:04.747Z,54.19
2018-11-04T18:36:33.581Z,54.54
2018-11-04T18:39:02.596Z,55.22
2018-11-04T18:41:31.622Z,55.61
2018-11-04T18:44:00.732Z,56.37
2018-11-04T18:46:29.869Z,56.67
2018-11-04T18:48:59.074Z,57.27
2018-11-04T18:51:28.185Z,57.55
2018-11-04T18:53:57.191Z,58.07
2018-11-04T18:56:25.939Z,58.19
2018-11-04T18:58:55.609Z,58.76
2018-11-04T19:01:24.386Z,59.20
2018-11-04T19:03:53.346Z,59.18
2018-11-04T19:06:22.740Z,60.21
2018-11-04T19:08:51.673Z,60.78
2018-11-04T19:11:20.839Z,61.62
2018-11-04T19:13:50.015Z,62.24
2018-11-04T19:16:19.062Z,63.11
2018-11-04T19:18:48.127Z,64.49
2018-11-04T19:21:17.020Z,65.30
2018-11-04T19:23:45.823Z,65.85
2018-11-04T19:26:14.579Z,66.60
2018-11-04T19:28:43.434Z,66.91
2018-11-04T19:31:12.618Z,67.86
2018-11-04T19:33:41.708Z,67.76
2018-11-04T19:36:10.731Z,68.08
2018-11-04T19:38:40.021Z,68.26
2018-11-04T19:41:08.990Z,68.85
2018-11-04T19:43:38.011Z,69.26
2018-11-04T19:46:06.869Z,69.89
2018-11-04T19:48:35.823Z,70.52
2018-11-04T19:51:05.080Z,70.98
2018-11-04T19:53:33.862Z,71.20
2018-11-04T19:56:02.857Z,71.66
2018-11-04T19:58:31.957Z,72.09
2018-11-04T20:01:01.126Z,72.02
2018-11-04T20:03:30.038Z,72.16
2018-11-04T20:05:59.554Z,72.74
2018-11-04T20:08:28.491Z,72.85
2018-11-04T20:10:57.435Z,72.83
2018-11-04T20:13:31.673Z,73.11
2018-11-04T20:16:00.571Z,73.20
2018-11-04T20:18:34.923Z,73.67
2018-11-04T20:21:04.024Z,73.83
2018-11-04T20:23:33.027Z,73.96
2018-11-04T20:26:05.282Z,74.25
2018-11-04T20:28:34.326Z,74.10
2018-11-04T20:31:03.068Z,74.32
2018-11-04T20:33:32.378Z,74.35
2018-11-04T20:36:01.601Z,74.18
2018-11-04T20:38:36.671Z,74.54
2018-11-04T20:41:11.078Z,74.60
2018-11-04T20:43:40.214Z,74.90
2018-11-04T20:46:09.445Z,74.28
2018-11-04T20:48:43.763Z,74.51
2018-11-04T20:51:12.702Z,74.42
2018-11-04T20:53:41.654Z,74.40
2018-11-04T20:56:15.886Z,73.57
2018-11-04T20:58:44.945Z,73.14
2018-11-04T21:01:13.985Z,73.12
2018-11-04T21:03:43.443Z,73.39
2018-11-04T21:06:12.229Z,73.10
2018-11-04T21:08:41.292Z,73.28
2018-11-04T21:11:10.318Z,73.15
2018-11-04T21:13:39.154Z,73.48
2018-11-04T21:16:08.431Z,73.69
2018-11-04T21:18:37.679Z,74.26
2018-11-04T21:21:06.750Z,74.05
2018-11-04T21:23:35.555Z,74.23
2018-11-04T21:26:04.651Z,74.94
2018-11-04T21:28:33.555Z,74.50
2018-11-04T21:31:02.367Z,74.58
2018-11-04T21:33:31.433Z,74.89
2018-11-04T21:36:00.246Z,75.21
2018-11-04T21:38:29.543Z,75.47
2018-11-04T21:40:58.570Z,75.71
2018-11-04T21:43:27.703Z,75.80
2018-11-04T21:45:56.508Z,75.71
2018-11-04T21:48:25.501Z,75.64
2018-11-04T21:50:54.415Z,75.77
2018-11-04T21:53:23.275Z,76.35
2018-11-04T21:55:53.270Z,76.06
2018-11-04T21:58:23.340Z,76.02
2018-11-04T22:00:52.227Z,76.78
2018-11-04T22:03:21.404Z,76.81
2018-11-04T22:05:50.406Z,77.47
2018-11-04T22:08:19.301Z,78.24
2018-11-04T22:10:48.012Z,78.81
2018-11-04T22:13:16.958Z,78.59
2018-11-04T22:15:45.873Z,78.25
2018-11-04T22:18:15.095Z,78.18
2018-11-04T22:20:44.073Z,78.57
2018-11-04T22:23:12.950Z,78.87
2018-11-04T22:25:42.162Z,79.28
2018-11-04T22:28:11.153Z,79.66
2018-11-04T22:30:40.239Z,79.67
2018-11-04T22:33:09.247Z,79.53
2018-11-04T22:35:38.235Z,79.17
2018-11-04T22:38:07.194Z,79.14
2018-11-04T22:40:36.603Z,79.89
2018-11-04T22:43:05.603Z,80.11
2018-11-04T22:45:34.517Z,80.19
2018-11-04T22:48:03.804Z,80.42
2018-11-04T22:50:32.813Z,79.99
2018-11-04T22:53:01.552Z,79.08
2018-11-04T22:55:31.124Z,79.30
2018-11-04T22:58:04.943Z,78.98
2018-11-04T23:00:39.587Z,78.48
2018-11-04T23:03:08.746Z,78.42
2018-11-04T23:05:37.840Z,78.39
2018-11-04T23:08:07.420Z,78.24
2018-11-04T23:10:36.442Z,77.79
2018-11-04T23:13:05.534Z,77.88
2018-11-04T23:15:34.649Z,78.00
2018-11-04T23:18:04.865Z,78.20
2018-11-04T23:20:33.864Z,77.99
2018-11-04T23:23:03.213Z,77.96
2018-11-04T23:25:32.466Z,78.55
2018-11-04T23:28:01.264Z,78.45
2018-11-04T23:30:30.517Z,77.89
2018-11-04T23:32:59.343Z,77.86
2018-11-04T23:35:28.532Z,76.42
2018-11-04T23:37:57.855Z,76.10
2018-11-04T23:40:26.639Z,76.87
2018-11-04T23:42:55.807Z,76.70
2018-11-04T23:45:24.938Z,76.42
2018-11-04T23:47:54.626Z,76.59
2018-11-04T23:50:23.802Z,76.06
2018-11-04T23:52:53.646Z,76.31
2018-11-04T23:55:22.430Z,75.50
2018-11-04T23:57:51.117Z,74.90
